Redcliff, Canada
Current Conditions -  °F | °C
As of 4:00 PM on Friday 31 Oct 2014 (Local Time) from CYXH Reporting Station
Broken Clouds Broken Clouds  
Wind Chill: 16°   Ceiling: 28000
Heat Index: 16°   Visibility: 30mi
Dew Point:   Wind: 15mph
Humidity: 39%   Direction: 200°SSW
Pressure: 29.63"   Gusts: NA
Location:  50.08°N, 110.79°W
Report Text: CYXH 312200Z 20013KT 30SM FEW190 BKN280 16/02 A2963 RMK AC1CI6 SLP040 DENSITY ALT 3200FT
Loading
Personal Weather Stations






























Interactive Weather Map
Tropical Storm Tracking
New forecast layout! Learn more

10-Day Weather Forecast

Advertisements
Track Severe Weather on mobile